Time;durP1;ratioP1;P1;durP2;ratioP2;P2;SDS_P1;SDS_P2;PMS_P1;PMS_P2;Temp;Humidity;BMP_temperature;BMP_pressure;BME280_temperature;BME280_humidity;BME280_pressure;Samples;Min_cycle;Max_cycle;Signal;HPM_P1;HPM_P2
2021/11/22 00:00:42;;;;;;;8.10;2.07;;;;;;;2.36;100.00;101740.13;2090667;28;20025;-67
2021/11/22 00:01:43;;;;;;;3.85;2.28;;;;;;;2.35;100.00;101734.09;2091305;28;20021;-67
2021/11/22 00:02:44;;;;;;;7.30;2.33;;;;;;;2.36;100.00;101742.69;2091367;28;20449;-67
2021/11/22 00:03:44;;;;;;;;;;;;;;;2.37;100.00;101736.69;2091684;28;20021;-67
2021/11/22 00:04:45;;;;;;;7.72;1.90;;;;;;;2.37;100.00;101734.97;2090643;28;19909;-67
2021/11/22 00:05:46;;;;;;;8.60;2.60;;;;;;;2.38;100.00;101746.13;2082397;28;20482;-67
2021/11/22 00:06:46;;;;;;;6.13;2.50;;;;;;;2.39;100.00;101745.28;2090712;28;20056;-67
2021/11/22 00:07:47;;;;;;;8.87;2.37;;;;;;;2.41;100.00;101739.28;2091310;28;20033;-66
2021/11/22 00:08:47;;;;;;;7.00;2.43;;;;;;;2.39;100.00;101742.72;2090613;28;20036;-67
2021/11/22 00:09:47;;;;;;;7.73;2.33;;;;;;;2.37;100.00;101744.41;2090670;28;20148;-67
2021/11/22 00:10:47;;;;;;;10.60;2.57;;;;;;;2.31;100.00;101740.94;2091261;28;20482;-67
2021/11/22 00:11:49;;;;;;;4.27;2.00;;;;;;;2.29;100.00;101747.78;2091168;28;20028;-67
2021/11/22 00:12:50;;;;;;;5.00;2.10;;;;;;;2.34;100.00;101746.97;2091250;28;20386;-66
2021/11/22 00:13:50;;;;;;;9.73;2.67;;;;;;;2.46;100.00;101749.59;2091170;28;20024;-67
2021/11/22 00:14:50;;;;;;;6.33;2.40;;;;;;;2.47;100.00;101748.78;2091188;28;20436;-66
2021/11/22 00:15:53;;;;;;;8.93;2.63;;;;;;;2.45;100.00;101753.03;2091172;28;20033;-66
2021/11/22 00:16:53;;;;;;;8.13;3.10;;;;;;;2.45;100.00;101753.03;2091202;28;20390;-66
2021/11/22 00:17:53;;;;;;;8.17;2.03;;;;;;;2.44;100.00;101752.16;2091159;28;20023;-66
2021/11/22 00:18:55;;;;;;;7.10;2.10;;;;;;;2.41;100.00;101749.59;2091194;28;20048;-66
2021/11/22 00:19:55;;;;;;;;;;;;;;;2.35;100.00;101756.41;2091558;28;20013;-66
2021/11/22 00:20:55;;;;;;;7.40;2.40;;;;;;;2.39;100.00;101758.19;2091123;28;20380;-66
2021/11/22 00:21:55;;;;;;;8.67;2.60;;;;;;;2.36;100.00;101758.16;2091140;28;20336;-66
2021/11/22 00:22:56;;;;;;;10.20;2.53;;;;;;;2.35;100.00;101757.28;2090417;28;20033;-66
2021/11/22 00:23:56;;;;;;;9.63;3.93;;;;;;;2.34;100.00;101760.72;2090565;28;20032;-66
2021/11/22 00:24:56;;;;;;;6.77;1.97;;;;;;;2.37;100.00;101758.16;2090499;28;20064;-66
2021/11/22 00:25:57;;;;;;;8.63;2.30;;;;;;;2.35;100.00;101756.41;2090480;28;20020;-67
2021/11/22 00:26:57;;;;;;;6.23;2.40;;;;;;;2.34;100.00;101765.00;2090979;28;20334;-66
2021/11/22 00:27:58;;;;;;;5.93;2.33;;;;;;;2.37;100.00;101757.28;2091128;28;20029;-66
2021/11/22 00:28:59;;;;;;;13.60;2.50;;;;;;;2.36;100.00;101763.31;2091118;28;20074;-67
2021/11/22 00:29:59;;;;;;;8.23;2.27;;;;;;;2.31;100.00;101765.84;2091055;28;20044;-67
2021/11/22 00:30:59;;;;;;;9.33;2.03;;;;;;;2.31;100.00;101766.72;2091083;28;20029;-67
2021/11/22 00:32:03;;;;;;;7.80;2.23;;;;;;;2.35;100.00;101767.56;2091010;28;20060;-67
2021/11/22 00:33:04;;;;;;;6.20;2.13;;;;;;;2.37;100.00;101757.28;2091017;28;20104;-66
2021/11/22 00:34:04;;;;;;;8.32;2.40;;;;;;;2.40;100.00;101765.03;2091069;28;20024;-66
2021/11/22 00:35:06;;;;;;;10.83;3.20;;;;;;;2.46;100.00;101770.22;2091167;28;20033;-66
2021/11/22 00:36:07;;;;;;;14.73;2.30;;;;;;;2.42;100.00;101766.78;2090999;28;20063;-66
2021/11/22 00:37:16;;;;;;;8.13;2.50;;;;;;;2.45;100.00;101768.50;2090991;28;20037;-66
2021/11/22 00:38:17;;;;;;;9.35;2.60;;;;;;;2.42;100.00;101768.47;2091014;28;20029;-66
2021/11/22 00:39:17;;;;;;;7.20;2.42;;;;;;;2.43;100.00;101776.22;2091011;28;20068;-66
2021/11/22 00:40:18;;;;;;;5.37;1.63;;;;;;;2.46;100.00;101780.53;2090347;28;20024;-67
2021/11/22 00:41:19;;;;;;;8.10;2.42;;;;;;;2.49;100.00;101774.56;2090517;28;20067;-66
2021/11/22 00:42:19;;;;;;;6.90;2.03;;;;;;;2.51;100.00;101778.88;2090306;28;20017;-66
2021/11/22 00:43:21;;;;;;;5.20;2.03;;;;;;;2.47;100.00;101787.44;2090399;28;20488;-67
2021/11/22 00:44:21;;;;;;;7.30;1.85;;;;;;;2.47;100.00;101782.28;2090993;28;20033;-67
2021/11/22 00:45:22;;;;;;;13.57;2.20;;;;;;;2.43;100.00;101785.69;2090304;28;20025;-67
2021/11/22 00:46:25;;;;;;;9.48;1.70;;;;;;;2.40;100.00;101789.06;2090348;28;20498;-67
2021/11/22 00:47:25;;;;;;;12.25;2.33;;;;;;;2.45;100.00;101789.13;2091028;28;20029;-67
2021/11/22 00:48:26;;;;;;;8.60;1.80;;;;;;;2.46;100.00;101795.97;2090944;28;20031;-66
2021/11/22 00:49:27;;;;;;;6.85;1.73;;;;;;;2.46;100.00;101790.84;2090852;28;20081;-66
2021/11/22 00:50:28;;;;;;;4.13;1.60;;;;;;;2.41;100.00;101795.09;2090296;28;20071;-66
2021/11/22 00:51:28;;;;;;;7.45;2.03;;;;;;;2.50;100.00;101796.88;2090289;28;20048;-67
2021/11/22 00:52:29;;;;;;;3.03;1.67;;;;;;;2.49;100.00;101793.44;2090925;28;20533;-66
2021/11/22 00:53:29;;;;;;;5.57;1.53;;;;;;;2.49;100.00;101801.16;2090920;28;20036;-65
2021/11/22 00:54:31;;;;;;;4.55;1.60;;;;;;;2.48;100.00;101802.03;2090899;28;20104;-66
2021/11/22 00:55:31;;;;;;;6.43;1.75;;;;;;;2.45;100.00;101807.16;2090882;28;20090;-67
2021/11/22 00:56:35;;;;;;;7.07;1.75;;;;;;;2.45;100.00;101804.56;2090895;28;20081;-66
2021/11/22 00:57:36;;;;;;;5.72;1.77;;;;;;;2.43;100.00;101811.44;2090221;28;20020;-65
2021/11/22 00:58:36;;;;;;;4.90;2.07;;;;;;;2.43;100.00;101807.13;2090327;28;20049;-66
2021/11/22 00:59:36;;;;;;;8.83;2.30;;;;;;;2.42;100.00;101805.41;2090820;28;20459;-67
2021/11/22 01:00:37;;;;;;;10.47;1.93;;;;;;;2.41;100.00;101810.56;2090884;28;20028;-66
2021/11/22 01:01:37;;;;;;;15.98;2.28;;;;;;;2.47;100.00;101808.03;2090711;28;20114;-67
2021/11/22 01:02:38;;;;;;;4.50;2.00;;;;;;;2.45;100.00;101820.03;2090864;28;20060;-67
2021/11/22 01:03:38;;;;;;;6.63;1.80;;;;;;;2.47;100.00;101823.50;2090842;28;20099;-67
2021/11/22 01:04:38;;;;;;;6.40;2.20;;;;;;;2.56;100.00;101823.56;2090851;28;20017;-66
2021/11/22 01:05:39;;;;;;;7.23;1.90;;;;;;;2.56;100.00;101828.72;2090830;28;20031;-67
2021/11/22 01:06:39;;;;;;;10.13;2.77;;;;;;;2.53;100.00;101828.69;2090860;28;20398;-67
2021/11/22 01:07:39;;;;;;;5.43;1.80;;;;;;;2.54;100.00;101830.41;2090781;28;20028;-67
2021/11/22 01:08:40;;;;;;;7.90;2.17;;;;;;;2.55;100.00;101826.13;2090336;28;20013;-67
2021/11/22 01:09:40;;;;;;;6.23;1.80;;;;;;;2.51;100.00;101832.97;2090238;28;20025;-67
2021/11/22 01:10:40;;;;;;;5.53;1.70;;;;;;;2.46;100.00;101832.06;2090406;28;20058;-67
2021/11/22 01:11:41;;;;;;;9.57;2.43;;;;;;;2.46;100.00;101833.78;2090848;28;20025;-67
2021/11/22 01:12:42;;;;;;;5.97;1.73;;;;;;;2.48;100.00;101834.66;2091041;28;20025;-67
2021/11/22 01:13:43;;;;;;;9.60;1.98;;;;;;;2.42;100.00;101830.31;2090848;28;20031;-67
2021/11/22 01:14:43;;;;;;;6.10;1.70;;;;;;;2.36;100.00;101838.00;2090875;28;20028;-67
2021/11/22 01:15:43;;;;;;;8.03;2.10;;;;;;;2.36;100.00;101835.44;2090712;28;20035;-67
2021/11/22 01:16:44;;;;;;;4.43;1.83;;;;;;;2.37;100.00;101837.16;2090763;28;20310;-66
2021/11/22 01:17:46;;;;;;;6.77;1.60;;;;;;;2.37;100.00;101838.03;2090682;28;20482;-66
2021/11/22 01:18:46;;;;;;;3.88;1.65;;;;;;;2.39;100.00;101835.47;2090728;28;20025;-67
2021/11/22 01:19:51;;;;;;;6.83;1.70;;;;;;;2.35;100.00;101833.69;2090657;28;20025;-66
2021/11/22 01:20:51;;;;;;;5.95;2.17;;;;;;;2.36;100.00;101845.75;2090671;28;20064;-67
2021/11/22 01:21:52;;;;;;;6.43;1.87;;;;;;;2.38;100.00;101839.75;2090797;28;20033;-67
2021/11/22 01:22:52;;;;;;;7.05;2.15;;;;;;;2.37;100.00;101847.47;2090616;28;20294;-67
2021/11/22 01:23:53;;;;;;;9.10;2.13;;;;;;;2.41;100.00;101844.94;2090647;28;20025;-67
2021/11/22 01:24:55;;;;;;;8.55;2.00;;;;;;;2.36;100.00;101853.47;2090667;28;20028;-66
2021/11/22 01:25:55;;;;;;;;;;;;;;;2.37;100.00;101847.47;2090275;28;20410;-66
2021/11/22 01:26:55;;;;;;;6.10;1.65;;;;;;;2.41;100.00;101849.22;2089899;28;19916;-66
2021/11/22 01:27:56;;;;;;;8.57;2.20;;;;;;;2.43;100.00;101853.50;2090657;28;20017;-67
2021/11/22 01:28:56;;;;;;;7.40;2.13;;;;;;;2.38;100.00;101850.06;2090021;28;20028;-66
2021/11/22 01:29:56;;;;;;;5.13;1.53;;;;;;;2.37;100.00;101847.47;2089909;28;20020;-65
2021/11/22 01:30:57;;;;;;;8.77;1.93;;;;;;;2.35;100.00;101849.16;2090074;28;20028;-66
2021/11/22 01:31:58;;;;;;;4.63;1.52;;;;;;;2.38;100.00;101854.34;2090485;28;20375;-66
2021/11/22 01:32:58;;;;;;;6.37;1.80;;;;;;;2.37;100.00;101858.63;2089976;28;20039;-68
2021/11/22 01:33:58;;;;;;;5.03;1.57;;;;;;;2.34;100.00;101856.03;2090029;28;20028;-66
2021/11/22 01:34:58;;;;;;;7.37;1.77;;;;;;;2.33;100.00;101856.00;2090576;28;20048;-66
2021/11/22 01:35:59;;;;;;;6.07;1.80;;;;;;;2.33;100.00;101856.00;2090525;28;20094;-66
2021/11/22 01:37:00;;;;;;;9.80;2.30;;;;;;;2.35;100.00;101860.31;2090567;28;20074;-66
2021/11/22 01:38:00;;;;;;;12.07;2.25;;;;;;;2.37;100.00;101857.75;2089782;28;20461;-66
2021/11/22 01:39:01;;;;;;;6.67;2.10;;;;;;;2.39;100.00;101858.66;2090019;28;20037;-65
2021/11/22 01:40:02;;;;;;;11.03;2.20;;;;;;;2.38;100.00;101854.34;2090598;28;20290;-66
2021/11/22 01:41:03;;;;;;;4.75;1.77;;;;;;;2.36;100.00;101862.03;2090499;28;20078;-65
2021/11/22 01:42:04;;;;;;;5.63;1.75;;;;;;;2.35;100.00;101859.44;2090455;28;20028;-66
2021/11/22 01:43:05;;;;;;;12.07;2.42;;;;;;;2.34;100.00;101862.88;2090449;28;20120;-66
2021/11/22 01:44:05;;;;;;;5.10;1.67;;;;;;;2.34;100.00;101868.03;2090497;28;20413;-66
2021/11/22 01:45:08;;;;;;;5.63;2.30;;;;;;;2.29;100.00;101866.28;2090519;28;20029;-66
2021/11/22 01:46:16;;;;;;;4.63;1.77;;;;;;;2.27;100.00;101874.84;2089791;28;20027;-66
2021/11/22 01:47:16;;;;;;;6.60;1.60;;;;;;;2.23;100.00;101881.72;2082538;28;20112;-66
2021/11/22 01:48:18;;;;;;;6.80;1.60;;;;;;;2.22;100.00;101874.81;2089883;28;20024;-66
2021/11/22 01:49:19;;;;;;;9.68;1.92;;;;;;;2.30;100.00;101883.47;2090465;28;20029;-66
2021/11/22 01:50:21;;;;;;;;;;;;;;;2.29;100.00;101876.59;2090095;28;20442;-66
2021/11/22 01:51:22;;;;;;;5.68;1.80;;;;;;;2.28;100.00;101882.59;2089768;28;19916;-66
2021/11/22 01:52:22;;;;;;;10.32;2.15;;;;;;;2.31;100.00;101880.06;2090409;28;20048;-66
2021/11/22 01:53:24;;;;;;;5.33;2.17;;;;;;;2.30;100.00;101883.47;2090407;28;20063;-65
2021/11/22 01:54:24;;;;;;;3.22;1.38;;;;;;;2.28;100.00;101885.19;2090449;28;20025;-66
2021/11/22 01:55:26;;;;;;;5.67;2.43;;;;;;;2.32;100.00;101888.63;2090434;28;20025;-66
2021/11/22 01:56:27;;;;;;;5.07;1.70;;;;;;;2.30;100.00;101883.47;2089755;28;20025;-65
2021/11/22 01:57:27;;;;;;;5.75;1.90;;;;;;;2.28;100.00;101889.47;2089862;28;20031;-66
2021/11/22 01:58:27;;;;;;;8.80;2.20;;;;;;;2.25;100.00;101890.28;2089824;28;20033;-66
2021/11/22 01:59:29;;;;;;;5.20;1.50;;;;;;;2.25;100.00;101890.28;2089769;28;20060;-66
2021/11/22 02:00:34;;;;;;;5.00;1.63;;;;;;;2.26;100.00;101892.00;2089804;28;20032;-66
2021/11/22 02:01:34;;;;;;;5.50;1.88;;;;;;;2.25;100.00;101889.41;2090333;28;20048;-66
2021/11/22 02:02:35;;;;;;;6.50;1.67;;;;;;;2.21;100.00;101887.66;2089787;28;20024;-66
2021/11/22 02:03:35;;;;;;;7.93;1.40;;;;;;;2.31;100.00;101890.38;2081482;28;20561;-65
2021/11/22 02:04:35;;;;;;;5.23;1.83;;;;;;;2.29;100.00;101891.22;2089699;28;20055;-66
2021/11/22 02:05:36;;;;;;;4.30;1.90;;;;;;;2.24;100.00;101891.16;2090409;28;20031;-66
2021/11/22 02:06:37;;;;;;;4.40;2.47;;;;;;;2.20;100.00;101891.97;2090362;28;20032;-66
2021/11/22 02:07:38;;;;;;;5.00;1.83;;;;;;;2.23;100.00;101891.13;2090388;28;20500;-66
2021/11/22 02:08:39;;;;;;;6.88;1.70;;;;;;;2.17;100.00;101886.78;2090420;28;20501;-67
2021/11/22 02:09:40;;;;;;;5.63;1.92;;;;;;;2.17;100.00;101902.25;2089680;28;20159;-67
2021/11/22 02:10:40;;;;;;;6.60;1.80;;;;;;;2.15;100.00;101909.06;2081435;28;20538;-67
2021/11/22 02:11:41;;;;;;;7.03;1.75;;;;;;;2.11;100.00;101902.16;2081257;28;20030;-66
2021/11/22 02:12:41;;;;;;;8.60;1.75;;;;;;;2.10;100.00;101900.44;2089618;28;20413;-66
2021/11/22 02:13:42;;;;;;;5.60;2.00;;;;;;;2.11;100.00;101912.47;2089683;28;20024;-67
2021/11/22 02:14:43;;;;;;;4.03;1.48;;;;;;;2.12;100.00;101907.34;2090257;28;20488;-66
2021/11/22 02:15:43;;;;;;;3.47;1.67;;;;;;;2.22;100.00;101910.88;2090314;28;20047;-67
2021/11/22 02:16:43;;;;;;;3.97;1.70;;;;;;;2.17;100.00;101912.53;2089681;28;20024;-67
2021/11/22 02:17:45;;;;;;;5.43;1.97;;;;;;;2.14;100.00;101918.53;2089622;28;20056;-66
2021/11/22 02:18:46;;;;;;;7.20;1.67;;;;;;;2.12;100.00;101919.38;2081523;28;20021;-67
2021/11/22 02:19:59;;;;;;;3.37;1.73;;;;;;;2.10;100.00;101915.91;2089021;28;20506;-67
2021/11/22 02:20:59;;;;;;;5.63;1.67;;;;;;;2.08;100.00;101920.19;2090229;28;20031;-67
2021/11/22 02:21:59;;;;;;;6.37;1.67;;;;;;;2.10;100.00;101918.47;2090268;28;20400;-66
2021/11/22 02:23:03;;;;;;;3.27;1.77;;;;;;;2.10;100.00;101921.06;2089566;28;20032;-66
2021/11/22 02:24:04;;;;;;;8.48;1.70;;;;;;;2.08;100.00;101925.34;2089702;28;20072;-66
2021/11/22 02:25:06;;;;;;;;;;;;;;;2.15;100.00;101919.38;2090651;28;20021;-66
2021/11/22 02:26:07;;;;;;;4.72;1.70;;;;;;;2.10;100.00;101924.50;2090143;28;19908;-65
2021/11/22 02:27:07;;;;;;;8.07;1.83;;;;;;;2.06;100.00;101921.00;2090072;28;20044;-66
2021/11/22 02:28:09;;;;;;;6.20;1.67;;;;;;;2.08;100.00;101923.59;2089568;28;20482;-65
2021/11/22 02:29:09;;;;;;;13.80;2.33;;;;;;;2.04;100.00;101916.69;2081313;28;20029;-65
2021/11/22 02:30:12;;;;;;;5.20;1.70;;;;;;;2.10;100.00;101921.06;2081376;28;20021;-65
2021/11/22 02:31:12;;;;;;;3.67;2.10;;;;;;;2.13;100.00;101921.09;2089337;28;20109;-66
2021/11/22 02:32:13;;;;;;;4.68;1.50;;;;;;;2.08;100.00;101923.59;2090165;28;20036;-66
2021/11/22 02:33:17;;;;;;;3.67;1.65;;;;;;;2.05;100.00;101921.88;2089515;28;20028;-65
2021/11/22 02:34:17;;;;;;;5.90;1.42;;;;;;;2.02;100.00;101928.72;2089658;28;20036;-66
2021/11/22 02:35:20;;;;;;;5.40;1.50;;;;;;;1.99;100.00;101924.38;2090189;28;20470;-65
2021/11/22 02:36:21;;;;;;;7.20;1.90;;;;;;;2.04;100.00;101927.88;2090182;28;20112;-65
2021/11/22 02:37:22;;;;;;;6.57;1.70;;;;;;;2.04;100.00;101920.16;2090179;28;20025;-65
2021/11/22 02:38:34;;;;;;;4.43;1.63;;;;;;;2.04;100.00;101927.88;2090080;28;20029;-65
2021/11/22 02:39:35;;;;;;;4.28;1.50;;;;;;;2.01;100.00;101930.41;2089509;28;20072;-67
2021/11/22 02:40:35;;;;;;;5.93;1.60;;;;;;;1.98;100.00;101929.53;2089577;28;20021;-66
2021/11/22 02:41:38;;;;;;;4.77;1.50;;;;;;;1.97;100.00;101926.06;2089478;28;20063;-66
2021/11/22 02:42:42;;;;;;;7.28;1.45;;;;;;;1.98;100.00;101927.78;2089533;28;20040;-66
2021/11/22 02:43:45;;;;;;;2.22;1.35;;;;;;;2.00;100.00;101936.41;2090103;28;20520;-66
2021/11/22 02:44:45;;;;;;;6.53;1.52;;;;;;;2.00;100.00;101933.84;2090148;28;20017;-65
2021/11/22 02:45:46;;;;;;;5.70;1.87;;;;;;;2.00;100.00;101931.28;2089463;28;20140;-66
2021/11/22 02:46:47;;;;;;;;;;;;;;;1.99;100.00;101932.09;2090019;28;20067;-66
2021/11/22 02:47:49;;;;;;;2.33;1.25;;;;;;;1.98;100.00;101932.94;2090163;28;19935;-66
2021/11/22 02:48:49;;;;;;;3.30;1.17;;;;;;;1.96;100.00;101933.78;2090215;28;20467;-66
2021/11/22 02:49:50;;;;;;;4.17;1.20;;;;;;;1.94;100.00;101928.59;2090096;28;20021;-66
2021/11/22 02:50:51;;;;;;;4.28;1.55;;;;;;;1.92;100.00;101933.75;2090034;28;20437;-66
2021/11/22 02:51:51;;;;;;;3.80;1.08;;;;;;;1.92;100.00;101933.75;2090080;28;20047;-67
2021/11/22 02:52:52;;;;;;;8.97;2.17;;;;;;;1.95;100.00;101932.91;2090124;28;20103;-66
2021/11/22 02:54:04;;;;;;;6.07;1.60;;;;;;;1.97;100.00;101933.81;2089511;28;20017;-67
2021/11/22 02:55:06;;;;;;;3.92;1.40;;;;;;;1.97;100.00;101931.22;2089568;28;20025;-66
2021/11/22 02:56:09;;;;;;;6.05;1.40;;;;;;;1.94;100.00;101936.34;2090088;28;20405;-67
2021/11/22 02:57:10;;;;;;;6.57;2.00;;;;;;;1.99;100.00;101944.97;2090099;28;20501;-66
2021/11/22 02:58:11;;;;;;;;;;;;;;;2.00;100.00;101945.84;2090496;28;20025;-67
2021/11/22 02:59:11;;;;;;;2.35;1.33;;;;;;;2.01;100.00;101944.97;2090062;28;20008;-66
2021/11/22 03:00:16;;;;;;;2.77;1.30;;;;;;;1.99;100.00;101944.13;2089420;28;20107;-67
2021/11/22 03:01:16;;;;;;;3.22;1.05;;;;;;;1.92;100.00;101949.19;2089497;28;20029;-67
2021/11/22 03:02:16;;;;;;;1.98;1.13;;;;;;;1.89;100.00;101953.44;2090262;28;20056;-66
2021/11/22 03:03:17;;;;;;;5.33;1.43;;;;;;;1.89;100.00;101953.44;2090066;28;20079;-67
2021/11/22 03:04:17;;;;;;;12.27;1.77;;;;;;;1.94;100.00;101954.34;2090139;28;20386;-66
2021/11/22 03:05:19;;;;;;;5.17;1.50;;;;;;;1.97;100.00;101958.69;2090223;28;20025;-66
2021/11/22 03:06:19;;;;;;;;;;;;;;;1.92;100.00;101961.22;2089829;28;20474;-66
2021/11/22 03:07:19;;;;;;;3.90;1.10;;;;;;;1.88;100.00;101960.28;2089688;28;19912;-66
2021/11/22 03:08:19;;;;;;;6.47;1.90;;;;;;;1.87;100.00;101961.16;2090098;28;20061;-66
2021/11/22 03:09:20;;;;;;;4.10;1.40;;;;;;;1.89;100.00;101966.31;2090094;28;20486;-67
2021/11/22 03:10:23;;;;;;;3.00;1.53;;;;;;;1.88;100.00;101962.88;2090067;28;20483;-65
2021/11/22 03:11:23;;;;;;;3.97;1.65;;;;;;;1.88;100.00;101962.03;2089306;28;20517;-65
2021/11/22 03:12:23;;;;;;;4.10;1.50;;;;;;;1.85;100.00;101957.69;2089521;28;20021;-67
2021/11/22 03:13:23;;;;;;;5.97;1.87;;;;;;;1.83;100.00;101958.50;2090002;28;20029;-66
2021/11/22 03:14:26;;;;;;;3.30;1.80;;;;;;;1.86;100.00;101968.84;2089918;28;20374;-66
2021/11/22 03:15:27;;;;;;;4.72;1.42;;;;;;;1.85;100.00;101967.13;2090067;28;20032;-66
2021/11/22 03:16:30;;;;;;;;;;;;;;;1.83;100.00;101968.81;2090403;28;20028;-66
2021/11/22 03:17:31;;;;;;;5.05;1.27;;;;;;;1.90;100.00;101971.50;2090009;28;19942;-66
2021/11/22 03:18:31;;;;;;;7.80;3.00;;;;;;;1.97;100.00;101972.44;2089389;28;20087;-66
2021/11/22 03:19:31;;;;;;;6.80;1.80;;;;;;;1.94;100.00;101974.97;2089347;28;20047;-67
2021/11/22 03:20:32;;;;;;;4.80;1.80;;;;;;;1.91;100.00;101969.75;2089410;28;20025;-67
2021/11/22 03:21:33;;;;;;;6.60;2.40;;;;;;;1.86;100.00;101967.16;2089347;28;20098;-66
2021/11/22 03:22:34;;;;;;;5.65;1.67;;;;;;;1.82;100.00;101978.25;2089468;28;20056;-67
2021/11/22 03:23:36;;;;;;;5.22;1.92;;;;;;;1.82;100.00;101977.38;2090006;28;20470;-66
2021/11/22 03:24:36;;;;;;;4.97;1.20;;;;;;;1.82;100.00;101979.97;2090015;28;20043;-66
2021/11/22 03:25:36;;;;;;;5.67;1.47;;;;;;;1.84;100.00;101980.84;2090078;28;20421;-66
2021/11/22 03:26:37;;;;;;;8.17;1.50;;;;;;;1.80;100.00;101983.38;2089812;28;20049;-67
2021/11/22 03:27:40;;;;;;;5.30;1.50;;;;;;;1.80;100.00;101982.50;2089384;28;20059;-66
2021/11/22 03:28:41;;;;;;;9.15;1.73;;;;;;;1.76;100.00;101984.19;2089411;28;20110;-67
2021/11/22 03:29:41;;;;;;;6.07;1.50;;;;;;;1.82;100.00;101987.69;2090017;28;20033;-67
2021/11/22 03:30:42;;;;;;;5.67;0.97;;;;;;;1.77;100.00;101987.63;2090070;28;20036;-67
2021/11/22 03:31:42;;;;;;;5.80;1.58;;;;;;;1.78;100.00;101992.78;2091439;28;20032;-66
2021/11/22 03:32:43;;;;;;;6.57;1.57;;;;;;;1.74;100.00;101996.16;2090939;28;20367;-65
2021/11/22 03:33:46;;;;;;;2.28;1.27;;;;;;;1.72;100.00;101992.72;2091020;28;20775;-65
2021/11/22 03:34:46;;;;;;;6.03;1.67;;;;;;;1.71;100.00;101990.97;2091510;28;20032;-67
2021/11/22 03:35:50;;;;;;;5.33;1.90;;;;;;;1.71;100.00;101995.28;2091576;28;20025;-66
2021/11/22 03:36:51;;;;;;;3.22;1.50;;;;;;;1.67;100.00;101995.22;2091509;28;20436;-67
2021/11/22 03:37:51;;;;;;;;;;;;;;;1.66;100.00;101998.66;2091831;28;20031;-67
2021/11/22 03:38:52;;;;;;;6.10;1.33;;;;;;;1.68;100.00;102001.25;2091428;28;19966;-66
2021/11/22 03:39:52;;;;;;;6.17;1.37;;;;;;;1.66;100.00;102003.81;2091464;28;20029;-66
2021/11/22 03:40:55;;;;;;;3.60;1.37;;;;;;;1.63;100.00;101997.72;2090780;28;20808;-66
2021/11/22 03:41:58;;;;;;;3.30;1.17;;;;;;;1.64;100.00;102004.63;2090845;28;20017;-67
2021/11/22 03:44:11;;;;;;;4.97;1.52;;;;;;;1.75;100.00;102002.19;2091579;28;20394;-66
2021/11/22 03:45:11;;;;;;;3.97;1.35;;;;;;;1.72;100.00;102003.03;2091520;28;20021;-66
2021/11/22 03:46:13;;;;;;;2.93;1.33;;;;;;;1.67;100.00;102007.22;2091493;28;20027;-66
2021/11/22 03:47:13;;;;;;;;;;;;;;;1.63;100.00;102010.59;2091854;28;20028;-66
2021/11/22 03:48:14;;;;;;;3.75;1.08;;;;;;;1.66;100.00;102005.50;2091442;28;20373;-66
2021/11/22 03:49:15;;;;;;;9.35;1.52;;;;;;;1.71;100.00;102006.41;2091479;28;20025;-65
2021/11/22 03:50:15;;;;;;;4.28;1.73;;;;;;;1.72;100.00;102012.44;2091466;28;20021;-66
2021/11/22 03:51:17;;;;;;;5.87;1.23;;;;;;;1.68;100.00;102008.97;2090648;28;20114;-66
2021/11/22 03:52:17;;;;;;;6.45;1.50;;;;;;;1.68;100.00;102011.53;2090866;28;20036;-67
2021/11/22 03:53:18;;;;;;;6.67;1.50;;;;;;;1.65;100.00;102012.34;2091424;28;20393;-66
2021/11/22 03:54:19;;;;;;;7.63;1.93;;;;;;;1.70;100.00;102020.13;2091505;28;20025;-66
2021/11/22 03:55:19;;;;;;;6.50;1.70;;;;;;;1.73;100.00;102015.03;2091465;28;20293;-67
2021/11/22 03:56:19;;;;;;;2.40;1.33;;;;;;;1.73;100.00;102016.72;2090809;28;20082;-66
2021/11/22 03:57:20;;;;;;;2.87;1.30;;;;;;;1.70;100.00;102008.97;2090851;28;20056;-65
2021/11/22 03:58:20;;;;;;;6.17;1.90;;;;;;;1.71;100.00;102016.72;2091397;28;20029;-67
2021/11/22 03:59:20;;;;;;;7.07;1.43;;;;;;;1.68;100.00;102016.69;2090737;28;20037;-66
2021/11/22 04:00:22;;;;;;;4.43;1.63;;;;;;;1.65;100.00;102022.63;2090860;28;20033;-66
2021/11/22 04:01:22;;;;;;;3.78;1.25;;;;;;;1.63;100.00;102028.63;2090605;28;20035;-66
2021/11/22 04:02:24;;;;;;;4.05;1.83;;;;;;;1.64;100.00;102025.22;2082487;28;20021;-66
2021/11/22 04:03:24;;;;;;;2.17;1.63;;;;;;;1.64;100.00;102020.91;2090616;28;20474;-65
2021/11/22 04:04:25;;;;;;;7.17;1.87;;;;;;;1.62;100.00;102022.63;2091352;28;20029;-65
2021/11/22 04:05:25;;;;;;;9.07;1.90;;;;;;;1.60;100.00;102026.88;2091301;28;20699;-65
2021/11/22 04:06:26;;;;;;;5.47;2.87;;;;;;;1.62;100.00;102030.34;2091344;28;20115;-65
2021/11/22 04:07:26;;;;;;;3.50;1.65;;;;;;;1.64;100.00;102031.22;2091287;28;20021;-66
2021/11/22 04:08:27;;;;;;;4.40;1.63;;;;;;;1.62;100.00;102037.19;2090596;28;20064;-66
2021/11/22 04:09:27;;;;;;;6.67;1.80;;;;;;;1.60;100.00;102044.00;2090675;28;20033;-65
2021/11/22 04:10:27;;;;;;;4.97;1.80;;;;;;;1.54;100.00;102037.94;2091247;28;20286;-66
2021/11/22 04:11:28;;;;;;;5.13;1.67;;;;;;;1.51;100.00;102037.88;2091212;28;20025;-66
2021/11/22 04:12:28;;;;;;;3.60;1.77;;;;;;;1.48;100.00;102040.44;2091274;28;20091;-65
2021/11/22 04:13:28;;;;;;;3.07;1.43;;;;;;;1.48;100.00;102040.44;2091304;28;20103;-65
2021/11/22 04:14:28;;;;;;;4.27;1.60;;;;;;;1.48;100.00;102039.56;2091279;28;20082;-66
2021/11/22 04:15:29;;;;;;;5.10;2.37;;;;;;;1.45;100.00;102037.81;2091139;28;20103;-66
2021/11/22 04:16:29;;;;;;;3.77;1.70;;;;;;;1.45;100.00;102045.53;2091210;28;20104;-66
2021/11/22 04:17:29;;;;;;;5.77;1.70;;;;;;;1.46;100.00;102041.22;2091215;28;20025;-66
2021/11/22 04:18:30;;;;;;;2.93;1.30;;;;;;;1.41;100.00;102043.75;2091268;28;20025;-66
2021/11/22 04:19:30;;;;;;;4.50;1.70;;;;;;;1.37;100.00;102053.13;2091193;28;20021;-66
2021/11/22 04:20:31;;;;;;;4.60;1.33;;;;;;;1.34;100.00;102047.94;2090522;28;20059;-67
2021/11/22 04:21:31;;;;;;;3.73;1.50;;;;;;;1.34;100.00;102053.09;2090685;28;20054;-66
2021/11/22 04:22:31;;;;;;;2.13;1.60;;;;;;;1.39;100.00;102060.84;2091167;28;20029;-65
2021/11/22 04:23:32;;;;;;;3.63;1.70;;;;;;;1.41;100.00;102060.03;2090505;28;20025;-66
2021/11/22 04:24:33;;;;;;;7.30;2.17;;;;;;;1.41;100.00;102056.63;2082238;28;20044;-66
2021/11/22 04:25:34;;;;;;;6.20;1.90;;;;;;;1.42;100.00;102063.47;2082304;28;20083;-67
2021/11/22 04:26:34;;;;;;;5.28;1.55;;;;;;;1.40;100.00;102067.72;2090415;28;20049;-67
2021/11/22 04:27:35;;;;;;;5.87;1.80;;;;;;;1.38;100.00;102067.72;2091038;28;20025;-66
2021/11/22 04:28:36;;;;;;;4.10;1.85;;;;;;;1.38;100.00;102070.31;2090513;28;20021;-66
2021/11/22 04:29:38;;;;;;;4.72;2.10;;;;;;;1.46;100.00;102072.97;2082302;28;20029;-67
2021/11/22 04:30:39;;;;;;;;;;;;;;;1.44;100.00;102073.81;2090809;28;20009;-66
2021/11/22 04:31:39;;;;;;;4.25;1.40;;;;;;;1.40;100.00;102076.31;2090449;28;19986;-66
2021/11/22 04:32:39;;;;;;;7.80;2.37;;;;;;;1.43;100.00;102072.91;2091144;28;20063;-66
2021/11/22 04:33:40;;;;;;;3.87;1.43;;;;;;;1.44;100.00;102079.81;2091140;28;20135;-67
2021/11/22 04:34:40;;;;;;;4.53;2.28;;;;;;;1.44;100.00;102078.94;2091147;28;20021;-65
2021/11/22 04:35:40;;;;;;;7.10;2.53;;;;;;;1.49;100.00;102083.31;2091113;28;20025;-67
2021/11/22 04:36:41;;;;;;;6.87;1.97;;;;;;;1.45;100.00;102086.69;2091098;28;20120;-66
2021/11/22 04:37:42;;;;;;;6.30;1.50;;;;;;;1.42;100.00;102091.78;2091166;28;20112;-65
2021/11/22 04:38:42;;;;;;;5.00;1.48;;;;;;;1.38;100.00;102084.84;2091007;28;20021;-65
2021/11/22 04:39:43;;;;;;;5.40;1.60;;;;;;;1.43;100.00;102093.50;2091044;28;20024;-65
2021/11/22 04:40:43;;;;;;;4.47;2.03;;;;;;;1.46;100.00;102095.25;2091083;28;20393;-65
2021/11/22 04:41:44;;;;;;;6.67;2.27;;;;;;;1.40;100.00;102104.63;2091043;28;20084;-65
2021/11/22 04:42:47;;;;;;;6.70;1.67;;;;;;;1.40;100.00;102093.44;2090312;28;20013;-65
2021/11/22 04:43:48;;;;;;;5.03;1.63;;;;;;;1.36;100.00;102092.53;2090280;28;20025;-65
2021/11/22 04:44:48;;;;;;;3.37;1.63;;;;;;;1.35;100.00;102095.97;2090505;28;20022;-66
2021/11/22 04:45:49;;;;;;;3.43;1.27;;;;;;;1.35;100.00;102097.66;2090974;28;20094;-66